Merliz — SE2449 — position and weather

sailwx.info

Track history (hours):
 
Tides and Currents Weather Stations Pressure Air Temp Water Temp Dewpoint Dewpoint Depression Visibility Wind Speed Wind Dir Waves Ship Positions

Merliz

Last reported at 2016-Jul-18 04:23 UTC. Time now 2016-Jul-28 22:20 UTC.
Position N 59°28' E 024°49'.
Warning: this ship's position is 10 days out of date.

Length 12 m.

Type: Sailing vessel. MMSI: 265694940.

Date/timePositionNaut miles runAvg speedWind from/ knotsBaromVisibWave heightAir tempDewpointWater temp
2016-Jul-18 04:23N 59°28' E 024°49'0 0.0
2016-Jul-18 03:32N 59°28' E 024°49'0 0.0
2016-Jul-18 02:29N 59°28' E 024°49'0 0.0
2016-Jul-18 01:32N 59°28' E 024°49'0 0.0
2016-Jul-18 00:32N 59°28' E 024°49'0 0.0
2016-Jul-17 23:32N 59°28' E 024°49'0 0.0
2016-Jul-17 22:32N 59°28' E 024°49'0 0.0
2016-Jul-17 21:32N 59°28' E 024°49'0 0.0
2016-Jul-17 20:32N 59°28' E 024°49'0 0.0
2016-Jul-17 19:32N 59°28' E 024°49'0 0.0
2016-Jul-17 18:32N 59°28' E 024°49'0 0.0
2016-Jul-17 17:29N 59°28' E 024°49'0 0.0
2016-Jul-17 16:29N 59°28' E 024°49'0 0.0
2016-Jul-17 04:23N 59°28' E 024°49'0 0.0
2016-Jul-17 03:26N 59°28' E 024°49'0 0.0
2016-Jul-17 02:32N 59°28' E 024°49'0 0.0
2016-Jul-17 01:32N 59°28' E 024°49'0 0.0
2016-Jul-17 00:32N 59°28' E 024°49'0 0.0
2016-Jul-16 23:32N 59°28' E 024°49'0 0.0
2016-Jul-16 22:26N 59°28' E 024°49'0 0.0
2016-Jul-16 21:29N 59°28' E 024°49'0 0.0
2016-Jul-16 20:32N 59°28' E 024°49'0 0.0
2016-Jul-16 19:26N 59°28' E 024°49'0 0.0
2016-Jul-16 18:26N 59°28' E 024°49'0 0.0
2016-Jul-16 17:32N 59°28' E 024°49'0 0.0
2016-Jul-16 16:32N 59°28' E 024°49'0 0.0
2016-Jul-16 15:32N 59°28' E 024°49'0 0.0
2016-Jul-16 14:32N 59°28' E 024°49'0 0.0
2016-Jul-16 13:32N 59°28' E 024°49'0 0.0
2016-Jul-16 12:32N 59°28' E 024°49'0 0.0
2016-Jul-16 11:32N 59°28' E 024°49'2 1.8
2016-Jul-16 10:33N 59°27' E 024°47'6 5.9
2016-Jul-16 09:33N 59°32' E 024°40'36 0.9
2016-Jul-14 16:30N 59°57' E 023°50'4 4.2
2016-Jul-14 15:33N 59°54' E 023°44'5 4.7
2016-Jul-14 14:33N 59°52' E 023°36'4 4.2
2016-Jul-14 13:33N 59°51' E 023°28'5 4.5
2016-Jul-14 12:33N 59°48' E 023°22'5 4.7
2016-Jul-14 11:33N 59°48' E 023°13'49 1.7
2016-Jul-13 06:30N 59°50' E 021°35'1 0.0
2016-Jul-12 11:33N 59°50' E 021°35'0 0.0
2016-Jul-12 10:33N 59°50' E 021°35'1 1.0
2016-Jul-12 09:33N 59°50' E 021°33'6 6.2
2016-Jul-12 08:31N 59°48' E 021°21'2 1.1
2016-Jul-12 07:06N 59°47' E 021°22'0 0.0
2016-Jul-12 06:33N 59°47' E 021°22'0 0.0
2016-Jul-12 05:33N 59°47' E 021°22'0 0.0
2016-Jul-12 04:33N 59°47' E 021°22'0 0.0
2016-Jul-12 03:33N 59°47' E 021°22'0 0.0
2016-Jul-12 02:33N 59°47' E 021°22'0 0.0
2016-Jul-12 01:33N 59°47' E 021°22'0 0.0
2016-Jul-12 00:27N 59°47' E 021°22'0 0.0
2016-Jul-11 23:27N 59°47' E 021°22'0 0.0
2016-Jul-11 22:30N 59°47' E 021°22'0 0.0
2016-Jul-11 21:30N 59°47' E 021°22'0 0.0
2016-Jul-11 20:33N 59°47' E 021°22'0 0.0
2016-Jul-11 19:27N 59°47' E 021°22'0 0.0
2016-Jul-11 18:27N 59°47' E 021°22'0 0.0
2016-Jul-11 17:33N 59°47' E 021°22'0 0.0
2016-Jul-11 16:33N 59°47' E 021°22'0 0.0
2016-Jul-11 15:33N 59°47' E 021°22'0 0.0
2016-Jul-11 14:27N 59°47' E 021°22'0 0.0
2016-Jul-11 13:33N 59°47' E 021°22'0 0.0
2016-Jul-11 12:33N 59°47' E 021°22'0 0.0
2016-Jul-11 11:33N 59°47' E 021°22'0 0.0
2016-Jul-11 10:30N 59°47' E 021°22'0 0.0
2016-Jul-11 09:33N 59°47' E 021°22'0 0.0
2016-Jul-11 08:33N 59°47' E 021°22'0 0.0
2016-Jul-11 07:31N 59°47' E 021°22'0 0.0
2016-Jul-11 06:25N 59°47' E 021°22'0 0.0
2016-Jul-11 04:25N 59°47' E 021°22'0 0.0
2016-Jul-11 03:31N 59°47' E 021°22'2 1.8
2016-Jul-11 02:33N 59°46' E 021°20'  
Track history (hours):
 
Tides and Currents Weather Stations Pressure Air Temp Water Temp Dewpoint Dewpoint Depression Visibility Wind Speed Wind Dir Waves Ship Positions

Merliz

Last reported at 2016-Jul-18 04:23 UTC. Time now 2016-Jul-28 22:20 UTC.
Position N 59°28' E 024°49'.
Warning: this ship's position is 10 days out of date.

Length 12 m.

Type: Sailing vessel. MMSI: 265694940.

Date/timePositionNaut miles runAvg speedWind from/ knotsBaromVisibWave heightAir tempDewpointWater temp
2016-Jul-18 04:23N 59°28' E 024°49'0 0.0
2016-Jul-18 03:32N 59°28' E 024°49'0 0.0
2016-Jul-18 02:29N 59°28' E 024°49'0 0.0
2016-Jul-18 01:32N 59°28' E 024°49'0 0.0
2016-Jul-18 00:32N 59°28' E 024°49'0 0.0
2016-Jul-17 23:32N 59°28' E 024°49'0 0.0
2016-Jul-17 22:32N 59°28' E 024°49'0 0.0
2016-Jul-17 21:32N 59°28' E 024°49'0 0.0
2016-Jul-17 20:32N 59°28' E 024°49'0 0.0
2016-Jul-17 19:32N 59°28' E 024°49'0 0.0
2016-Jul-17 18:32N 59°28' E 024°49'0 0.0
2016-Jul-17 17:29N 59°28' E 024°49'0 0.0
2016-Jul-17 16:29N 59°28' E 024°49'0 0.0
2016-Jul-17 04:23N 59°28' E 024°49'0 0.0
2016-Jul-17 03:26N 59°28' E 024°49'0 0.0
2016-Jul-17 02:32N 59°28' E 024°49'0 0.0
2016-Jul-17 01:32N 59°28' E 024°49'0 0.0
2016-Jul-17 00:32N 59°28' E 024°49'0 0.0
2016-Jul-16 23:32N 59°28' E 024°49'0 0.0
2016-Jul-16 22:26N 59°28' E 024°49'0 0.0
2016-Jul-16 21:29N 59°28' E 024°49'0 0.0
2016-Jul-16 20:32N 59°28' E 024°49'0 0.0
2016-Jul-16 19:26N 59°28' E 024°49'0 0.0
2016-Jul-16 18:26N 59°28' E 024°49'0 0.0
2016-Jul-16 17:32N 59°28' E 024°49'0 0.0
2016-Jul-16 16:32N 59°28' E 024°49'0 0.0
2016-Jul-16 15:32N 59°28' E 024°49'0 0.0
2016-Jul-16 14:32N 59°28' E 024°49'0 0.0
2016-Jul-16 13:32N 59°28' E 024°49'0 0.0
2016-Jul-16 12:32N 59°28' E 024°49'0 0.0
2016-Jul-16 11:32N 59°28' E 024°49'2 1.8
2016-Jul-16 10:33N 59°27' E 024°47'6 5.9
2016-Jul-16 09:33N 59°32' E 024°40'36 0.9
2016-Jul-14 16:30N 59°57' E 023°50'4 4.2
2016-Jul-14 15:33N 59°54' E 023°44'5 4.7
2016-Jul-14 14:33N 59°52' E 023°36'4 4.2
2016-Jul-14 13:33N 59°51' E 023°28'5 4.5
2016-Jul-14 12:33N 59°48' E 023°22'5 4.7
2016-Jul-14 11:33N 59°48' E 023°13'49 1.7
2016-Jul-13 06:30N 59°50' E 021°35'1 0.0
2016-Jul-12 11:33N 59°50' E 021°35'0 0.0
2016-Jul-12 10:33N 59°50' E 021°35'1 1.0
2016-Jul-12 09:33N 59°50' E 021°33'6 6.2
2016-Jul-12 08:31N 59°48' E 021°21'2 1.1
2016-Jul-12 07:06N 59°47' E 021°22'0 0.0
2016-Jul-12 06:33N 59°47' E 021°22'0 0.0
2016-Jul-12 05:33N 59°47' E 021°22'0 0.0
2016-Jul-12 04:33N 59°47' E 021°22'0 0.0
2016-Jul-12 03:33N 59°47' E 021°22'0 0.0
2016-Jul-12 02:33N 59°47' E 021°22'0 0.0
2016-Jul-12 01:33N 59°47' E 021°22'0 0.0
2016-Jul-12 00:27N 59°47' E 021°22'0 0.0
2016-Jul-11 23:27N 59°47' E 021°22'0 0.0
2016-Jul-11 22:30N 59°47' E 021°22'0 0.0
2016-Jul-11 21:30N 59°47' E 021°22'0 0.0
2016-Jul-11 20:33N 59°47' E 021°22'0 0.0
2016-Jul-11 19:27N 59°47' E 021°22'0 0.0
2016-Jul-11 18:27N 59°47' E 021°22'0 0.0
2016-Jul-11 17:33N 59°47' E 021°22'0 0.0
2016-Jul-11 16:33N 59°47' E 021°22'0 0.0
2016-Jul-11 15:33N 59°47' E 021°22'0 0.0
2016-Jul-11 14:27N 59°47' E 021°22'0 0.0
2016-Jul-11 13:33N 59°47' E 021°22'0 0.0
2016-Jul-11 12:33N 59°47' E 021°22'0 0.0
2016-Jul-11 11:33N 59°47' E 021°22'0 0.0
2016-Jul-11 10:30N 59°47' E 021°22'0 0.0
2016-Jul-11 09:33N 59°47' E 021°22'0 0.0
2016-Jul-11 08:33N 59°47' E 021°22'0 0.0
2016-Jul-11 07:31N 59°47' E 021°22'0 0.0
2016-Jul-11 06:25N 59°47' E 021°22'0 0.0
2016-Jul-11 04:25N 59°47' E 021°22'0 0.0
2016-Jul-11 03:31N 59°47' E 021°22'2 1.8
2016-Jul-11 02:33N 59°46' E 021°20'  

Dump ship's entire track history